createdAt,value
2018-12-03T00:02:01.317Z,47.33
2018-12-03T00:04:29.976Z,48.03
2018-12-03T00:06:59.079Z,47.57
2018-12-03T00:09:28.065Z,48.47
2018-12-03T00:11:57.004Z,47.50
2018-12-03T00:14:25.971Z,45.10
2018-12-03T00:16:54.993Z,44.10
2018-12-03T00:19:23.969Z,42.77
2018-12-03T00:21:52.983Z,43.03
2018-12-03T00:24:22.056Z,43.90
2018-12-03T00:26:51.068Z,42.43
2018-12-03T00:29:20.074Z,41.67
2018-12-03T00:31:48.675Z,40.77
2018-12-03T00:34:17.651Z,39.40
2018-12-03T00:36:46.628Z,40.10
2018-12-03T00:39:15.654Z,40.37
2018-12-03T00:41:44.219Z,39.00
2018-12-03T00:44:12.885Z,39.80
2018-12-03T00:46:41.843Z,40.70
2018-12-03T00:49:10.986Z,40.33
2018-12-03T00:51:39.956Z,41.67
2018-12-03T00:54:08.973Z,41.43
2018-12-03T00:56:37.963Z,42.30
2018-12-03T00:59:06.934Z,41.17
2018-12-03T01:01:36.148Z,41.23
2018-12-03T01:04:05.718Z,42.43
2018-12-03T01:06:48.799Z,41.80
2018-12-03T01:09:17.805Z,41.20
2018-12-03T01:11:46.806Z,40.50
2018-12-03T01:14:15.840Z,39.77
2018-12-03T01:16:44.927Z,40.07
2018-12-03T01:19:14.010Z,40.80
2018-12-03T01:21:42.643Z,40.93
2018-12-03T01:24:11.577Z,39.90
2018-12-03T01:26:40.557Z,41.53
2018-12-03T01:29:09.547Z,41.37
2018-12-03T01:31:38.193Z,41.30
2018-12-03T01:34:06.791Z,43.13
2018-12-03T01:36:35.730Z,42.20
2018-12-03T01:39:07.075Z,40.20
2018-12-03T01:41:36.376Z,41.70
2018-12-03T01:44:05.296Z,44.33
2018-12-03T01:46:34.254Z,43.50
2018-12-03T01:49:03.226Z,43.27
2018-12-03T01:51:32.204Z,44.13
2018-12-03T01:54:00.783Z,44.43
2018-12-03T01:56:29.845Z,43.47
2018-12-03T01:58:58.813Z,42.27
2018-12-03T02:01:27.774Z,43.67
2018-12-03T02:03:56.423Z,42.77
2018-12-03T02:06:25.384Z,45.00
2018-12-03T02:08:54.415Z,47.23
2018-12-03T02:11:23.378Z,50.70
2018-12-03T02:13:52.333Z,50.10
2018-12-03T02:16:21.281Z,48.73
2018-12-03T02:18:50.270Z,50.70
2018-12-03T02:21:19.323Z,48.43
2018-12-03T02:23:48.427Z,51.03
2018-12-03T02:26:17.369Z,49.87
2018-12-03T02:28:46.357Z,48.47
2018-12-03T02:31:15.329Z,48.80
2018-12-03T02:33:43.930Z,50.50
2018-12-03T02:36:12.888Z,51.13
2018-12-03T02:38:41.429Z,50.10
2018-12-03T02:41:10.411Z,48.73
2018-12-03T02:43:39.351Z,48.23
2018-12-03T02:46:08.343Z,48.40
2018-12-03T02:48:37.365Z,48.67
2018-12-03T02:51:06.392Z,50.60
2018-12-03T02:53:34.987Z,48.13
2018-12-03T02:56:04.035Z,49.67
2018-12-03T02:58:33.077Z,50.30
2018-12-03T03:01:02.071Z,49.80
2018-12-03T03:03:30.632Z,48.13
2018-12-03T03:05:59.625Z,49.10
2018-12-03T03:08:28.578Z,50.40
2018-12-03T03:10:57.619Z,49.67
2018-12-03T03:13:26.622Z,47.30
2018-12-03T03:15:55.542Z,47.90
2018-12-03T03:18:24.461Z,47.90
2018-12-03T03:20:53.559Z,50.57
2018-12-03T03:23:22.181Z,46.23
2018-12-03T03:25:51.237Z,48.23
2018-12-03T03:28:20.239Z,48.30
2018-12-03T03:30:48.883Z,51.03
2018-12-03T03:33:17.882Z,49.80
2018-12-03T03:35:46.523Z,48.37
2018-12-03T03:38:15.506Z,49.90
2018-12-03T03:40:44.629Z,48.73
2018-12-03T03:43:13.622Z,50.80
2018-12-03T03:45:42.570Z,51.77
2018-12-03T03:48:11.617Z,51.30
2018-12-03T03:50:40.658Z,54.33
2018-12-03T03:53:09.654Z,52.63
2018-12-03T03:55:38.596Z,52.87
2018-12-03T03:58:07.587Z,49.83
2018-12-03T04:00:36.255Z,51.90
2018-12-03T04:03:05.313Z,48.00
2018-12-03T04:05:34.371Z,50.00
2018-12-03T04:08:03.374Z,51.93
2018-12-03T04:10:32.337Z,50.73
2018-12-03T04:13:01.003Z,49.93
2018-12-03T04:15:29.579Z,49.77
2018-12-03T04:17:58.462Z,49.43
2018-12-03T04:20:27.454Z,47.20
2018-12-03T04:22:56.462Z,45.93
2018-12-03T04:25:25.778Z,47.00
2018-12-03T04:27:54.863Z,45.57
2018-12-03T04:30:23.908Z,48.20
2018-12-03T04:32:53.690Z,45.10
2018-12-03T04:35:23.920Z,44.63
2018-12-03T04:37:53.099Z,46.10
2018-12-03T04:40:22.262Z,43.40
2018-12-03T04:42:52.021Z,44.00
2018-12-03T04:45:21.040Z,42.23
2018-12-03T04:47:50.562Z,39.07
2018-12-03T04:50:21.410Z,39.93
2018-12-03T04:52:49.980Z,42.03
2018-12-03T04:55:19.960Z,40.50
2018-12-03T04:57:49.129Z,40.30
2018-12-03T05:00:20.000Z,39.03
2018-12-03T05:02:50.124Z,38.87
2018-12-03T05:05:19.316Z,39.43
2018-12-03T05:07:48.296Z,39.60
2018-12-03T05:10:18.265Z,39.70
2018-12-03T05:12:48.498Z,40.40
2018-12-03T05:15:17.525Z,39.90
2018-12-03T05:17:46.477Z,38.37
2018-12-03T05:20:15.903Z,40.63
2018-12-03T05:22:44.588Z,39.60
2018-12-03T05:25:18.924Z,39.97
2018-12-03T05:27:42.473Z,38.80
2018-12-03T05:30:12.406Z,40.20
2018-12-03T05:32:41.845Z,38.63
2018-12-03T05:35:13.207Z,38.17
2018-12-03T05:37:41.848Z,37.07
2018-12-03T05:40:11.286Z,36.83
2018-12-03T05:42:40.294Z,38.47
2018-12-03T05:45:09.367Z,37.23
2018-12-03T05:47:38.368Z,38.95
2018-12-03T05:50:10.441Z,37.50
2018-12-03T05:52:39.434Z,37.20
2018-12-03T05:55:08.802Z,37.10
2018-12-03T05:57:37.814Z,37.63
2018-12-03T06:00:10.576Z,35.47
2018-12-03T06:02:39.606Z,36.47
2018-12-03T06:05:09.662Z,35.63
2018-12-03T06:07:38.653Z,35.43
2018-12-03T06:10:12.324Z,35.30
2018-12-03T06:12:41.402Z,35.13
2018-12-03T06:15:15.496Z,33.17
2018-12-03T06:17:44.656Z,37.13
2018-12-03T06:20:16.526Z,35.67
2018-12-03T06:22:46.025Z,36.27
2018-12-03T06:25:17.342Z,34.00
2018-12-03T06:27:46.337Z,36.10
2018-12-03T06:30:16.592Z,35.83
2018-12-03T06:32:45.704Z,36.77
2018-12-03T06:35:15.430Z,39.00
2018-12-03T06:37:44.066Z,37.77
2018-12-03T06:40:15.285Z,39.50
2018-12-03T06:42:44.422Z,37.27
2018-12-03T06:45:13.539Z,36.73
2018-12-03T06:47:43.955Z,32.87
2018-12-03T06:50:13.021Z,31.83
2018-12-03T06:52:42.130Z,31.67
2018-12-03T06:55:11.086Z,32.37
2018-12-03T06:57:40.066Z,32.23
2018-12-03T07:00:11.565Z,25.63
2018-12-03T07:02:40.322Z,26.20
2018-12-03T07:05:10.207Z,25.97
2018-12-03T07:07:39.526Z,24.93
2018-12-03T07:10:13.421Z,24.53
2018-12-03T07:12:42.727Z,25.67
2018-12-03T07:15:14.385Z,25.20
2018-12-03T07:17:43.440Z,24.33
2018-12-03T07:20:13.193Z,24.73
2018-12-03T07:22:42.195Z,23.47
2018-12-03T07:25:11.913Z,24.90
2018-12-03T07:27:41.025Z,23.47
2018-12-03T07:30:16.794Z,23.17
2018-12-03T07:32:47.251Z,24.50
2018-12-03T07:35:16.209Z,22.93
2018-12-03T07:37:45.173Z,25.20
2018-12-03T07:40:19.752Z,24.70
2018-12-03T07:42:48.849Z,25.43
2018-12-03T07:45:19.851Z,27.07
2018-12-03T07:47:48.994Z,26.57
2018-12-03T07:50:18.244Z,26.93
2018-12-03T07:52:47.375Z,27.60
2018-12-03T07:55:18.671Z,27.97
2018-12-03T07:57:58.294Z,26.27
2018-12-03T08:00:30.987Z,28.47
2018-12-03T08:02:59.712Z,26.97
2018-12-03T08:05:28.413Z,27.17
2018-12-03T08:07:57.479Z,27.90
2018-12-03T08:10:26.124Z,27.60
2018-12-03T08:12:55.307Z,28.03
2018-12-03T08:15:24.302Z,28.10
2018-12-03T08:17:56.223Z,28.60
2018-12-03T08:20:27.413Z,31.95
2018-12-03T08:22:58.905Z,32.17
2018-12-03T08:25:27.874Z,30.13
2018-12-03T08:27:56.495Z,35.00
2018-12-03T08:30:25.481Z,39.10
2018-12-03T08:32:54.428Z,39.27
2018-12-03T08:35:23.451Z,34.90
2018-12-03T08:37:52.402Z,34.47
2018-12-03T08:40:21.412Z,35.03
2018-12-03T08:42:52.572Z,35.95
2018-12-03T08:45:22.596Z,37.65
2018-12-03T08:47:52.014Z,36.17
2018-12-03T08:50:24.989Z,34.70
2018-12-03T08:52:54.700Z,34.92
2018-12-03T08:55:23.666Z,35.23
2018-12-03T08:57:52.634Z,37.78
2018-12-03T09:00:23.939Z,35.10
2018-12-03T09:02:57.047Z,36.63
2018-12-03T09:05:27.760Z,37.48
2018-12-03T09:07:56.765Z,37.37
2018-12-03T09:10:25.812Z,34.57
2018-12-03T09:12:54.928Z,36.28
2018-12-03T09:15:24.186Z,35.13
2018-12-03T09:17:53.168Z,36.80
2018-12-03T09:20:22.136Z,33.93
2018-12-03T09:22:51.087Z,35.93
2018-12-03T09:25:24.166Z,33.83
2018-12-03T09:27:53.197Z,34.97
2018-12-03T09:30:27.514Z,37.53
2018-12-03T09:32:51.039Z,39.50
2018-12-03T09:35:19.647Z,38.73
2018-12-03T09:37:48.600Z,39.87
2018-12-03T09:40:20.418Z,39.10
2018-12-03T09:42:49.532Z,40.20
2018-12-03T09:45:19.096Z,41.87
2018-12-03T09:47:48.704Z,40.13
2018-12-03T09:50:19.886Z,39.27
2018-12-03T09:52:49.172Z,40.83
2018-12-03T09:55:26.386Z,42.70
2018-12-03T09:57:59.510Z,45.98
2018-12-03T10:00:28.530Z,43.77
2018-12-03T10:02:59.307Z,44.43
2018-12-03T10:05:29.995Z,39.95
2018-12-03T10:07:59.055Z,41.50
2018-12-03T10:10:28.103Z,44.48
2018-12-03T10:12:57.205Z,41.47
2018-12-03T10:15:28.151Z,43.13
2018-12-03T10:17:57.273Z,43.03
2018-12-03T10:20:26.454Z,42.40
2018-12-03T10:22:55.457Z,41.70
2018-12-03T10:25:24.439Z,44.77
2018-12-03T10:28:00.151Z,43.73
2018-12-03T10:30:29.334Z,43.20
2018-12-03T10:32:58.355Z,41.30
2018-12-03T10:35:34.028Z,41.63
2018-12-03T10:38:08.872Z,43.70
2018-12-03T10:40:41.374Z,44.90
2018-12-03T10:43:11.381Z,41.93
2018-12-03T10:45:40.465Z,42.60
2018-12-03T10:48:09.520Z,42.03
2018-12-03T10:50:38.539Z,42.93
2018-12-03T10:53:07.577Z,41.13
2018-12-03T10:55:42.630Z,43.07
2018-12-03T10:58:12.482Z,46.45
2018-12-03T11:00:47.152Z,44.90
2018-12-03T11:03:21.590Z,47.67
2018-12-03T11:05:56.234Z,43.40
2018-12-03T11:08:25.311Z,39.83
2018-12-03T11:10:55.410Z,41.30
2018-12-03T11:13:24.503Z,41.30
2018-12-03T11:15:53.553Z,39.23
2018-12-03T11:18:22.744Z,36.43
2018-12-03T11:20:51.799Z,37.63
2018-12-03T11:23:22.891Z,37.00
2018-12-03T11:25:52.323Z,33.43
2018-12-03T11:28:21.535Z,30.90
2018-12-03T11:30:55.021Z,36.20
2018-12-03T11:33:27.705Z,40.75
2018-12-03T11:35:58.336Z,38.23
2018-12-03T11:39:45.276Z,37.23
2018-12-03T11:42:14.506Z,34.70
2018-12-03T11:44:43.656Z,33.13
2018-12-03T11:47:19.283Z,32.93
2018-12-03T11:49:48.373Z,34.73
2018-12-03T11:52:17.386Z,37.70
2018-12-03T11:54:46.375Z,35.50
2018-12-03T11:57:15.374Z,34.43
2018-12-03T11:59:44.443Z,41.53
2018-12-03T12:02:13.458Z,39.98
2018-12-03T12:04:42.584Z,35.03
2018-12-03T12:07:11.679Z,39.18
2018-12-03T12:09:40.737Z,37.50
2018-12-03T12:12:09.894Z,36.20
2018-12-03T12:14:38.550Z,35.20
2018-12-03T12:17:07.555Z,34.03
2018-12-03T12:19:36.523Z,35.57
2018-12-03T12:22:06.103Z,36.13
2018-12-03T12:24:36.355Z,36.68
2018-12-03T12:27:04.627Z,35.80
2018-12-03T12:29:33.652Z,36.27
2018-12-03T12:32:02.699Z,33.37
2018-12-03T12:34:32.142Z,35.33
2018-12-03T12:37:01.161Z,34.10
2018-12-03T12:39:30.152Z,33.07
2018-12-03T12:41:59.205Z,34.13
2018-12-03T12:44:28.245Z,32.57
2018-12-03T12:46:57.213Z,34.30
2018-12-03T12:49:26.178Z,35.47
2018-12-03T12:51:55.128Z,34.13
2018-12-03T12:54:24.193Z,34.17
2018-12-03T12:56:53.350Z,34.20
2018-12-03T12:59:22.447Z,32.87
2018-12-03T13:01:52.453Z,30.57
2018-12-03T13:04:21.537Z,34.47
2018-12-03T13:06:50.578Z,33.57
2018-12-03T13:09:19.732Z,34.27
2018-12-03T13:11:49.129Z,35.57
2018-12-03T13:14:18.202Z,35.83
2018-12-03T13:16:47.287Z,36.47
2018-12-03T13:19:16.341Z,35.70
2018-12-03T13:21:47.401Z,36.93
2018-12-03T13:24:16.464Z,35.33
2018-12-03T13:26:50.300Z,37.70
2018-12-03T13:29:19.363Z,39.83
2018-12-03T13:31:48.358Z,36.33
2018-12-03T13:34:17.343Z,38.00
2018-12-03T13:36:46.390Z,37.90
2018-12-03T13:39:15.797Z,39.00
2018-12-03T13:41:44.839Z,40.50
2018-12-03T13:44:13.816Z,39.20
2018-12-03T13:46:43.096Z,39.67
2018-12-03T13:49:12.122Z,40.70
2018-12-03T13:51:41.435Z,38.80
2018-12-03T13:54:10.466Z,37.40
2018-12-03T13:56:39.550Z,39.10
2018-12-03T13:59:08.787Z,37.57
2018-12-03T14:01:38.373Z,39.43
2018-12-03T14:04:11.582Z,37.17
2018-12-03T14:06:45.660Z,37.80
2018-12-03T14:10:25.922Z,38.40
2018-12-03T14:13:03.307Z,39.90
2018-12-03T14:17:47.429Z,40.27
2018-12-03T14:20:16.639Z,41.07
2018-12-03T14:22:50.427Z,39.47
2018-12-03T14:25:19.421Z,40.40
2018-12-03T14:27:48.370Z,45.97
2018-12-03T14:30:17.401Z,46.00
2018-12-03T14:32:46.461Z,41.63
2018-12-03T14:35:15.556Z,41.47
2018-12-03T14:37:44.570Z,41.50
2018-12-03T14:40:13.590Z,42.37
2018-12-03T14:42:42.623Z,44.53
2018-12-03T14:45:11.789Z,46.10
2018-12-03T14:47:40.792Z,50.03
2018-12-03T14:50:10.761Z,49.93
2018-12-03T14:52:39.698Z,49.07
2018-12-03T14:55:08.870Z,47.17
2018-12-03T14:57:37.815Z,46.67
2018-12-03T15:00:09.775Z,48.33
2018-12-03T15:02:40.484Z,47.00
2018-12-03T15:05:09.784Z,50.17
2018-12-03T15:07:38.771Z,49.33
2018-12-03T15:10:09.115Z,48.27
2018-12-03T15:12:38.128Z,53.70
2018-12-03T15:15:09.157Z,51.60
2018-12-03T15:17:38.367Z,55.77
2018-12-03T15:20:08.177Z,54.80
2018-12-03T15:22:37.218Z,51.83
2018-12-03T15:25:08.623Z,51.23
2018-12-03T15:27:37.508Z,53.17
2018-12-03T15:30:08.970Z,51.87
2018-12-03T15:32:38.395Z,48.87
2018-12-03T15:35:09.117Z,51.53
2018-12-03T15:37:38.219Z,52.23
2018-12-03T15:40:11.943Z,51.97
2018-12-03T15:42:41.021Z,58.20
2018-12-03T15:45:11.180Z,57.37
2018-12-03T15:47:40.227Z,57.23
2018-12-03T15:50:09.308Z,65.10
2018-12-03T15:52:38.534Z,66.30
2018-12-03T15:55:08.755Z,63.90
2018-12-03T15:57:38.052Z,64.17
2018-12-03T16:00:10.499Z,62.83
2018-12-03T16:02:40.350Z,67.03
2018-12-03T16:05:13.827Z,67.90
2018-12-03T16:07:43.191Z,65.40
2018-12-03T16:10:14.217Z,65.40
2018-12-03T16:12:45.180Z,67.40
2018-12-03T16:15:14.984Z,67.53
2018-12-03T16:17:44.806Z,66.47
2018-12-03T16:20:14.110Z,69.03
2018-12-03T16:22:43.510Z,77.53
2018-12-03T16:25:13.234Z,115.27
2018-12-03T16:27:42.884Z,106.07
2018-12-03T16:30:15.984Z,109.33
2018-12-03T16:32:45.869Z,111.17
2018-12-03T16:35:15.638Z,89.33
2018-12-03T16:37:45.439Z,72.13
2018-12-03T16:40:15.254Z,80.93
2018-12-03T16:42:45.169Z,74.10
2018-12-03T16:45:15.191Z,85.37
2018-12-03T16:47:45.075Z,91.40
2018-12-03T16:50:14.931Z,92.00
2018-12-03T16:52:44.829Z,99.37
2018-12-03T16:55:14.661Z,95.10
2018-12-03T16:57:44.836Z,97.00
2018-12-03T17:00:54.181Z,81.20
2018-12-03T17:03:24.169Z,83.47
2018-12-03T17:06:00.555Z,77.40
2018-12-03T17:08:30.431Z,82.80
2018-12-03T17:11:05.402Z,85.10
2018-12-03T17:13:42.930Z,80.63
2018-12-03T17:19:36.492Z,69.80
2018-12-03T17:22:34.869Z,67.27
2018-12-03T17:25:05.057Z,71.93
2018-12-03T17:27:34.924Z,83.23
2018-12-03T17:30:05.921Z,83.73
2018-12-03T17:32:35.751Z,74.93
2018-12-03T17:35:06.677Z,77.87
2018-12-03T17:37:54.420Z,75.83
2018-12-03T17:40:29.238Z,73.07
2018-12-03T17:42:59.665Z,74.50
2018-12-03T17:45:29.039Z,78.83
2018-12-03T17:47:58.917Z,76.07
2018-12-03T17:50:28.140Z,72.10
2018-12-03T17:52:58.653Z,67.63
2018-12-03T17:55:27.903Z,71.63
2018-12-03T17:57:59.790Z,73.23
2018-12-03T18:00:34.306Z,72.27
2018-12-03T18:03:05.207Z,72.50
2018-12-03T18:05:36.595Z,79.60
2018-12-03T18:08:07.181Z,81.07
2018-12-03T18:10:36.421Z,90.50
2018-12-03T18:13:06.219Z,88.53
2018-12-03T18:15:36.587Z,84.43
2018-12-03T18:18:06.536Z,88.23
2018-12-03T18:20:37.275Z,83.03
2018-12-03T18:23:07.691Z,79.80
2018-12-03T18:25:37.598Z,84.03
2018-12-03T18:28:08.924Z,108.57
2018-12-03T18:30:39.343Z,92.73
2018-12-03T18:33:09.743Z,84.27
2018-12-03T18:35:39.715Z,94.63
2018-12-03T18:38:08.905Z,82.63
2018-12-03T18:40:38.832Z,79.93
2018-12-03T18:43:10.826Z,82.20
2018-12-03T18:45:40.702Z,84.80
2018-12-03T18:48:12.201Z,91.77
2018-12-03T18:50:44.600Z,91.43
2018-12-03T18:53:15.539Z,96.67
2018-12-03T18:55:45.505Z,96.80
2018-12-03T18:58:19.066Z,92.67
2018-12-03T19:00:49.496Z,92.40
2018-12-03T19:03:19.376Z,92.33
2018-12-03T19:05:49.395Z,86.87
2018-12-03T19:08:20.011Z,97.73
2018-12-03T19:10:49.280Z,94.37
2018-12-03T19:13:19.802Z,93.10
2018-12-03T19:15:56.171Z,93.50
2018-12-03T19:18:27.082Z,92.47
2018-12-03T19:20:56.362Z,104.20
2018-12-03T19:23:26.236Z,106.93
2018-12-03T19:25:56.131Z,112.53
2018-12-03T19:28:26.664Z,104.13
2018-12-03T19:30:56.610Z,94.87
2018-12-03T19:33:31.099Z,89.23
2018-12-03T19:36:21.625Z,83.80
2018-12-03T19:38:51.466Z,96.77
2018-12-03T19:41:21.425Z,98.82
2018-12-03T19:43:52.765Z,84.63
2018-12-03T19:46:22.646Z,89.93
2018-12-03T19:48:52.702Z,80.60
2018-12-03T19:51:22.887Z,82.40
2018-12-03T19:53:54.108Z,83.70
2018-12-03T19:56:24.340Z,79.10
2018-12-03T19:58:59.899Z,84.93
2018-12-03T20:01:29.905Z,92.57
2018-12-03T20:03:59.885Z,101.17
2018-12-03T20:06:31.037Z,99.93
2018-12-03T20:09:02.587Z,93.13
2018-12-03T20:11:33.555Z,88.07
2018-12-03T20:14:03.490Z,83.87
2018-12-03T20:16:36.154Z,79.30
2018-12-03T20:19:05.998Z,83.67
2018-12-03T20:21:36.824Z,78.97
2018-12-03T20:24:07.907Z,86.12
2018-12-03T20:26:44.620Z,85.90
2018-12-03T20:29:22.553Z,82.60
2018-12-03T20:32:16.045Z,85.73
2018-12-03T20:35:00.106Z,84.40
2018-12-03T20:37:41.520Z,81.23
2018-12-03T20:40:21.956Z,80.50
2018-12-03T20:42:58.458Z,73.13
2018-12-03T20:45:32.005Z,68.27
2018-12-03T20:48:01.910Z,78.63
2018-12-03T20:51:04.702Z,78.53
2018-12-03T20:53:39.829Z,78.40
2018-12-03T20:56:09.797Z,73.97
2018-12-03T20:58:39.670Z,79.83
2018-12-03T21:01:09.500Z,71.63
2018-12-03T21:03:39.892Z,68.10
2018-12-03T21:06:09.732Z,74.90
2018-12-03T21:08:39.038Z,72.17
2018-12-03T21:11:08.968Z,72.87
2018-12-03T21:13:38.312Z,71.47
2018-12-03T21:16:10.202Z,69.93
2018-12-03T21:18:40.154Z,70.80
2018-12-03T21:21:11.178Z,66.57
2018-12-03T21:23:41.007Z,66.67
2018-12-03T21:26:10.849Z,113.93
2018-12-03T21:28:40.892Z,116.93
2018-12-03T21:31:10.799Z,97.67
2018-12-03T21:33:40.639Z,94.27
2018-12-03T21:36:09.829Z,86.20
2018-12-03T21:38:39.800Z,81.20
2018-12-03T21:41:09.666Z,74.80
2018-12-03T21:43:39.465Z,74.43
2018-12-03T21:46:08.703Z,69.87
2018-12-03T21:48:38.563Z,73.57
2018-12-03T21:51:08.319Z,72.97
2018-12-03T21:53:38.100Z,79.83
2018-12-03T21:56:07.299Z,78.30
2018-12-03T21:58:37.027Z,73.40
2018-12-03T22:01:06.773Z,97.27
2018-12-03T22:03:36.589Z,69.80
2018-12-03T22:06:07.533Z,65.47
2018-12-03T22:08:37.324Z,60.20
2018-12-03T22:11:07.237Z,62.03
2018-12-03T22:13:36.927Z,59.83
2018-12-03T22:16:06.627Z,58.30
2018-12-03T22:18:36.375Z,60.07
2018-12-03T22:21:06.108Z,56.47
2018-12-03T22:23:36.802Z,54.77
2018-12-03T22:26:06.431Z,56.77
2018-12-03T22:28:35.459Z,54.30
2018-12-03T22:31:04.474Z,51.90
2018-12-03T22:33:34.631Z,52.57
2018-12-03T22:36:03.971Z,49.33
2018-12-03T22:38:33.032Z,48.47
2018-12-03T22:41:01.999Z,50.17
2018-12-03T22:43:30.971Z,51.27
2018-12-03T22:45:59.909Z,47.60
2018-12-03T22:48:28.884Z,51.90
2018-12-03T22:50:57.798Z,49.80
2018-12-03T22:53:26.673Z,51.13
2018-12-03T22:55:55.599Z,47.00
2018-12-03T22:58:24.559Z,47.20
2018-12-03T23:01:08.318Z,49.00
2018-12-03T23:03:37.242Z,48.20
2018-12-03T23:06:06.210Z,53.63
2018-12-03T23:08:35.175Z,48.43
2018-12-03T23:11:04.180Z,50.10
2018-12-03T23:13:33.173Z,48.83
2018-12-03T23:16:02.163Z,49.73
2018-12-03T23:18:31.105Z,48.37
2018-12-03T23:21:00.074Z,48.73
2018-12-03T23:23:28.984Z,50.60
2018-12-03T23:25:57.951Z,54.90
2018-12-03T23:28:26.857Z,53.23
2018-12-03T23:30:55.768Z,49.37
2018-12-03T23:33:24.711Z,50.17
2018-12-03T23:35:53.653Z,51.43
2018-12-03T23:38:22.670Z,50.07
2018-12-03T23:40:51.628Z,48.83
2018-12-03T23:43:20.579Z,50.10
2018-12-03T23:45:49.169Z,46.70
2018-12-03T23:48:18.111Z,48.73
2018-12-03T23:50:47.181Z,47.33
2018-12-03T23:53:16.148Z,47.27
2018-12-03T23:55:45.097Z,47.30
2018-12-03T23:58:14.065Z,48.90
